Time;durP1;ratioP1;P1;durP2;ratioP2;P2;SDS_P1;SDS_P2;PMS_P1;PMS_P2;Temp;Humidity;BMP_temperature;BMP_pressure;BME280_temperature;BME280_humidity;BME280_pressure;Samples;Min_cycle;Max_cycle;Signal;HPM_P1;HPM_P2
2022/05/20 00:00:07;;;;;;;;;;;;;;;21.98;37.00;96193.47;2077608;28;1512;-61
2022/05/20 00:01:10;;;;;;;;;;;;;;;21.98;37.04;96200.69;2080781;28;1674;-74
2022/05/20 00:02:13;;;;;;;;;;;;;;;21.99;37.08;96199.66;2074230;28;1732;-60
2022/05/20 00:03:15;;;;;;;;;;;;;;;21.98;36.93;96200.69;2078220;28;1579;-61
2022/05/20 00:04:18;;;;;;;;;;;;;;;21.99;37.04;96202.31;2076832;28;1701;-61
2022/05/20 00:05:20;;;;;;;;;;;;;;;21.97;36.86;96197.19;2078368;28;1914;-60
2022/05/20 00:06:23;;;;;;;;;;;;;;;21.98;36.77;96195.31;2080598;28;1583;-61
2022/05/20 00:07:27;;;;;;;;;;;;;;;21.97;37.00;96196.31;2072357;28;1676;-61
2022/05/20 00:08:31;;;;;;;;;;;;;;;21.98;37.05;96203.34;2070377;28;1176;-60
2022/05/20 00:09:33;;;;;;;;;;;;;;;21.97;36.89;96201.69;2073029;28;1552;-61
2022/05/20 00:10:36;;;;;;;;;;;;;;;21.96;37.15;96200.84;2078089;28;1603;-60
2022/05/20 00:11:39;;;;;;;;;;;;;;;21.97;37.33;96199.84;2079397;28;1542;-60
2022/05/20 00:12:42;;;;;;;;;;;;;;;21.97;37.16;96202.53;2076049;28;1528;-61
2022/05/20 00:13:45;;;;;;;;;;;;;;;21.98;37.24;96204.19;2076114;28;1665;-61
2022/05/20 00:14:47;;;;;;;;;;;;;;;21.98;37.10;96200.69;2080608;28;1615;-62
2022/05/20 00:15:50;;;;;;;;;;;;;;;21.98;37.04;96198.00;2078189;28;1652;-62
2022/05/20 00:16:52;;;;;;;;;;;;;;;21.98;37.21;96198.81;2073553;28;1238;-62
2022/05/20 00:17:55;;;;;;;;;;;;;;;21.97;37.37;96202.53;2075247;28;1593;-61
2022/05/20 00:18:57;;;;;;;;;;;;;;;21.97;37.59;96202.53;2076122;28;1647;-62
2022/05/20 00:19:59;;;;;;;;;;;;;;;21.97;37.04;96197.19;2073439;28;1572;-61
2022/05/20 00:21:02;;;;;;;;;;;;;;;21.97;37.62;96205.22;2071217;28;1961;-61
2022/05/20 00:22:05;;;;;;;;;;;;;;;21.97;37.52;96199.84;2080054;28;1789;-61
2022/05/20 00:23:09;;;;;;;;;;;;;;;21.96;37.37;96206.22;2065293;28;1066;-62
2022/05/20 00:24:11;;;;;;;;;;;;;;;21.97;37.46;96205.22;2065858;28;1629;-62
2022/05/20 00:26:36;;;;;;;;;;;;;;;21.98;37.22;96206.03;2065161;28;1561;-62
2022/05/20 00:27:37;;;;;;;;;;;;;;;21.97;37.53;96209.72;2078391;28;1516;-66
2022/05/20 00:28:40;;;;;;;;;;;;;;;21.97;37.48;96212.38;2076702;28;1542;-62
2022/05/20 00:29:42;;;;;;;;;;;;;;;21.96;37.59;96211.56;2072673;28;1527;-62
2022/05/20 00:30:45;;;;;;;;;;;;;;;21.96;38.05;96208.88;2077427;28;1639;-62
2022/05/20 00:31:48;;;;;;;;;;;;;;;21.96;37.44;96213.41;2065554;28;1569;-61
2022/05/20 00:32:52;;;;;;;;;;;;;;;21.96;37.61;96208.88;2074375;28;1532;-74
2022/05/20 00:33:54;;;;;;;;;;;;;;;21.96;37.25;96216.09;2081438;28;1056;-62
2022/05/20 00:34:57;;;;;;;;;;;;;;;21.96;37.67;96216.91;2074788;28;1605;-61
2022/05/20 00:35:59;;;;;;;;;;;;;;;21.97;37.37;96215.06;2075680;28;1653;-62
2022/05/20 00:37:02;;;;;;;;;;;;;;;21.95;37.35;96212.59;2079901;28;1587;-61
2022/05/20 00:38:04;;;;;;;;;;;;;;;21.95;37.42;96215.28;2078969;28;1426;-60
2022/05/20 00:39:08;;;;;;;;;;;;;;;21.95;37.46;96215.28;2075644;28;1805;-62
2022/05/20 00:40:11;;;;;;;;;;;;;;;21.96;37.66;96222.25;2072340;28;1691;-62
2022/05/20 00:41:14;;;;;;;;;;;;;;;21.95;38.11;96212.59;2081605;28;1132;-61
2022/05/20 00:42:17;;;;;;;;;;;;;;;21.96;37.40;96218.78;2081544;28;1116;-62
2022/05/20 00:43:27;;;;;;;;;;;;;;;21.95;37.65;96220.63;2066420;28;1456;-63
2022/05/20 00:44:29;;;;;;;;;;;;;;;21.96;38.10;96218.78;2072507;28;1486;-61
2022/05/20 00:45:32;;;;;;;;;;;;;;;21.96;37.58;96227.63;2074241;28;1989;-63
2022/05/20 00:46:35;;;;;;;;;;;;;;;21.94;37.76;96218.94;2080059;28;1665;-65
2022/05/20 00:47:37;;;;;;;;;;;;;;;21.96;37.71;96227.63;2080218;28;1647;-64
2022/05/20 00:48:40;;;;;;;;;;;;;;;21.95;37.98;96223.28;2075032;28;1769;-74
2022/05/20 00:49:45;;;;;;;;;;;;;;;21.95;37.68;96225.97;2079035;28;1453;-65
2022/05/20 00:50:50;;;;;;;;;;;;;;;21.95;37.80;96222.44;2081213;28;1542;-65
2022/05/20 00:51:53;;;;;;;;;;;;;;;21.96;37.60;96232.97;2082608;28;1093;-65
2022/05/20 00:52:56;;;;;;;;;;;;;;;21.97;37.86;96233.78;2081880;28;1613;-61
2022/05/20 00:54:01;;;;;;;;;;;;;;;21.96;37.84;96227.63;2076300;28;1591;-68
2022/05/20 00:55:08;;;;;;;;;;;;;;;21.97;37.84;96229.28;2072241;28;1632;-62
2022/05/20 00:56:13;;;;;;;;;;;;;;;21.96;37.79;96224.94;2066856;28;1030;-63
2022/05/20 00:57:17;;;;;;;;;;;;;;;21.96;38.13;96229.47;2076706;28;1385;-63
2022/05/20 00:58:20;;;;;;;;;;;;;;;21.96;38.02;96230.28;2081021;28;1552;-63
2022/05/20 00:59:26;;;;;;;;;;;;;;;21.96;37.80;96229.47;2076105;28;1706;-62
2022/05/20 01:00:29;;;;;;;;;;;;;;;21.95;38.12;96223.28;2074449;28;1567;-62
2022/05/20 01:01:32;;;;;;;;;;;;;;;21.95;38.33;96227.78;2077650;28;1564;-62
2022/05/20 01:02:35;;;;;;;;;;;;;;;21.96;38.03;96229.47;2082033;28;1530;-61
2022/05/20 01:03:38;;;;;;;;;;;;;;;21.95;38.07;96220.63;2077232;28;1603;-62
2022/05/20 01:04:41;;;;;;;;;;;;;;;21.95;38.72;96228.66;2078831;28;1644;-62
2022/05/20 01:05:45;;;;;;;;;;;;;;;21.95;37.84;96219.78;2075547;28;1985;-60
2022/05/20 01:06:47;;;;;;;;;;;;;;;21.95;37.89;96225.97;2077120;28;1682;-62
2022/05/20 01:07:51;;;;;;;;;;;;;;;21.95;37.98;96220.63;2074770;28;978;-62
2022/05/20 01:08:54;;;;;;;;;;;;;;;21.95;38.00;96225.13;2074957;28;1034;-61
2022/05/20 01:09:55;;;;;;;;;;;;;;;21.96;37.82;96222.25;2076761;28;1462;-62
2022/05/20 01:11:00;;;;;;;;;;;;;;;21.96;37.94;96224.94;2081623;28;1591;-62
2022/05/20 01:12:02;;;;;;;;;;;;;;;21.95;37.89;96225.13;2075632;28;1691;-62
2022/05/20 01:13:05;;;;;;;;;;;;;;;21.94;37.82;96224.28;2078772;28;1532;-62
2022/05/20 01:14:10;;;;;;;;;;;;;;;21.95;37.99;96225.97;2080569;28;1433;-62
2022/05/20 01:15:13;;;;;;;;;;;;;;;21.94;37.98;96224.28;2081900;28;1508;-61
2022/05/20 01:16:17;;;;;;;;;;;;;;;21.94;37.85;96221.63;2077101;28;1686;-61
2022/05/20 01:17:19;;;;;;;;;;;;;;;21.94;38.08;96218.94;2073953;28;1658;-62
2022/05/20 01:18:23;;;;;;;;;;;;;;;21.94;38.04;96216.28;2082645;28;1383;-62
2022/05/20 01:19:29;;;;;;;;;;;;;;;21.94;38.01;96220.75;2077986;28;1615;-61
2022/05/20 01:20:33;;;;;;;;;;;;;;;21.95;38.04;96222.44;2071880;28;1485;-60
2022/05/20 01:21:36;;;;;;;;;;;;;;;21.94;37.95;96218.94;2069076;28;1570;-61
2022/05/20 01:22:45;;;;;;;;;;;;;;;21.94;38.08;96213.59;2081186;28;1609;-61
2022/05/20 01:23:48;;;;;;;;;;;;;;;21.93;38.28;96217.28;2081681;28;1424;-61
2022/05/20 01:24:50;;;;;;;;;;;;;;;21.94;37.87;96212.75;2079139;28;1667;-62
2022/05/20 01:25:54;;;;;;;;;;;;;;;21.92;38.19;96218.28;2079520;28;1914;-61
2022/05/20 01:26:56;;;;;;;;;;;;;;;21.93;38.15;96211.91;2081530;28;1635;-61
2022/05/20 01:27:59;;;;;;;;;;;;;;;21.94;38.07;96213.59;2078131;28;1355;-61
2022/05/20 01:29:02;;;;;;;;;;;;;;;21.94;38.40;96218.09;2076779;28;1729;-60
2022/05/20 01:30:05;;;;;;;;;;;;;;;21.93;37.93;96217.28;2072305;28;1575;-62
2022/05/20 01:31:11;;;;;;;;;;;;;;;21.93;37.95;96222.63;2077770;28;1619;-61
2022/05/20 01:32:12;;;;;;;;;;;;;;;21.94;38.15;96223.44;2082662;28;1093;-62
2022/05/20 01:33:19;;;;;;;;;;;;;;;21.93;37.96;96222.63;2078896;28;1979;-61
2022/05/20 01:34:25;;;;;;;;;;;;;;;21.93;38.56;96216.44;2081504;28;1722;-60
2022/05/20 01:35:31;;;;;;;;;;;;;;;21.94;38.22;96218.09;2082577;28;1028;-60
2022/05/20 01:36:34;;;;;;;;;;;;;;;21.93;38.31;96222.63;2080687;28;1664;-59
2022/05/20 01:37:36;;;;;;;;;;;;;;;21.94;38.13;96218.09;2078330;28;1494;-59
2022/05/20 01:38:40;;;;;;;;;;;;;;;21.93;38.26;96211.91;2073923;28;1571;-58
2022/05/20 01:39:42;;;;;;;;;;;;;;;21.94;38.08;96210.06;2066514;28;1468;-60
2022/05/20 01:40:46;;;;;;;;;;;;;;;21.93;38.16;96208.41;2075456;28;1584;-59
2022/05/20 01:41:52;;;;;;;;;;;;;;;21.93;38.12;96214.59;2074476;28;1113;-59
2022/05/20 01:42:58;;;;;;;;;;;;;;;21.92;38.26;96214.78;2074292;28;1518;-59
2022/05/20 01:44:03;;;;;;;;;;;;;;;21.92;38.21;96214.78;2074503;28;1085;-59
2022/05/20 01:45:10;;;;;;;;;;;;;;;21.91;38.23;96216.66;2074345;28;1406;-59
2022/05/20 01:46:17;;;;;;;;;;;;;;;21.92;38.15;96214.78;2074369;28;1983;-59
2022/05/20 01:47:24;;;;;;;;;;;;;;;21.91;38.16;96216.66;2074663;28;1080;-59
2022/05/20 01:48:30;;;;;;;;;;;;;;;21.91;38.25;96222.00;2074442;28;1364;-59
2022/05/20 01:49:38;;;;;;;;;;;;;;;21.92;38.14;96215.63;2074613;28;1065;-58
2022/05/20 01:50:42;;;;;;;;;;;;;;;21.91;38.28;96211.31;2069494;28;1057;-59
2022/05/20 01:51:47;;;;;;;;;;;;;;;21.91;38.25;96213.97;2069293;28;1657;-59
2022/05/20 01:52:54;;;;;;;;;;;;;;;21.90;38.23;96213.13;2074346;28;1010;-58
2022/05/20 01:54:01;;;;;;;;;;;;;;;21.89;38.42;96208.81;2075889;28;1492;-59
2022/05/20 01:55:07;;;;;;;;;;;;;;;21.89;38.36;96205.31;2074310;28;1625;-59
2022/05/20 01:56:11;;;;;;;;;;;;;;;21.90;38.22;96213.13;2074618;28;1144;-60
2022/05/20 01:57:17;;;;;;;;;;;;;;;21.89;38.59;96211.47;2074539;28;1088;-60
2022/05/20 01:58:22;;;;;;;;;;;;;;;21.90;38.48;96213.13;2073700;28;1140;-60
2022/05/20 01:59:28;;;;;;;;;;;;;;;21.89;38.47;96210.66;2074333;28;1093;-57
2022/05/20 02:00:31;;;;;;;;;;;;;;;21.93;38.78;96214.59;2073930;28;1648;-60
2022/05/20 02:01:37;;;;;;;;;;;;;;;21.95;38.53;96214.41;2074452;28;1165;-59
2022/05/20 02:02:44;;;;;;;;;;;;;;;21.95;38.58;96217.94;2065169;28;1296;-59
2022/05/20 02:03:50;;;;;;;;;;;;;;;21.96;38.25;96213.41;2074052;28;1179;-59
2022/05/20 02:04:54;;;;;;;;;;;;;;;21.94;38.35;96208.25;2074514;28;1269;-59
2022/05/20 02:05:59;;;;;;;;;;;;;;;21.94;38.38;96212.75;2074091;28;1035;-58
2022/05/20 02:07:03;;;;;;;;;;;;;;;21.94;38.52;96213.59;2074379;28;1910;-59
2022/05/20 02:08:09;;;;;;;;;;;;;;;21.93;38.49;96211.91;2073873;28;1704;-59
2022/05/20 02:09:15;;;;;;;;;;;;;;;21.91;38.46;96219.31;2074377;28;1145;-59
2022/05/20 02:10:23;;;;;;;;;;;;;;;21.92;38.59;96220.97;2074364;28;1657;-58
2022/05/20 02:11:26;;;;;;;;;;;;;;;21.93;38.42;96217.28;2066281;28;1081;-59
2022/05/20 02:12:31;;;;;;;;;;;;;;;21.93;38.74;96216.44;2065818;28;1018;-60
2022/05/20 02:13:34;;;;;;;;;;;;;;;21.93;38.62;96222.63;2061623;28;1404;-59
2022/05/20 02:14:40;;;;;;;;;;;;;;;21.92;38.54;96218.28;2061463;28;1231;-59
2022/05/20 02:15:47;;;;;;;;;;;;;;;21.92;38.79;96220.97;2066346;28;1014;-59
2022/05/20 02:16:51;;;;;;;;;;;;;;;21.94;38.81;96221.63;2066227;28;1090;-59
2022/05/20 02:17:56;;;;;;;;;;;;;;;21.91;38.80;96219.31;2066173;28;1081;-60
2022/05/20 02:19:01;;;;;;;;;;;;;;;21.92;38.59;96220.97;2066380;28;1061;-72
2022/05/20 02:20:06;;;;;;;;;;;;;;;21.94;39.24;96215.41;2066403;28;1632;-59
2022/05/20 02:21:11;;;;;;;;;;;;;;;21.93;39.58;96222.63;2074321;28;993;-59
2022/05/20 02:22:15;;;;;;;;;;;;;;;21.93;38.62;96219.94;2074149;28;1088;-60
2022/05/20 02:23:21;;;;;;;;;;;;;;;21.92;38.55;96220.16;2074275;28;998;-61
2022/05/20 02:24:26;;;;;;;;;;;;;;;21.92;38.66;96226.31;2074090;28;978;-60
2022/05/20 02:25:31;;;;;;;;;;;;;;;21.93;39.03;96225.28;2065375;28;1620;-59
2022/05/20 02:26:37;;;;;;;;;;;;;;;21.92;38.62;96220.16;2073980;28;1273;-59
2022/05/20 02:27:43;;;;;;;;;;;;;;;21.95;38.45;96225.97;2074021;28;1699;-59
2022/05/20 02:28:48;;;;;;;;;;;;;;;21.93;38.56;96222.63;2074102;28;1711;-59
2022/05/20 02:29:59;;;;;;;;;;;;;;;21.93;38.37;96224.47;2074309;28;1144;-60
2022/05/20 02:31:02;;;;;;;;;;;;;;;21.90;37.82;96229.19;2065736;28;1583;-61
2022/05/20 02:32:08;;;;;;;;;;;;;;;21.93;38.05;96227.97;2082059;28;1050;-59
2022/05/20 02:33:11;;;;;;;;;;;;;;;21.92;37.96;96231.69;2081178;28;1545;-59
2022/05/20 02:34:14;;;;;;;;;;;;;;;21.89;37.49;96232.06;2080004;28;1720;-59
2022/05/20 02:35:16;;;;;;;;;;;;;;;21.85;37.80;96231.63;2072421;28;1785;-62
2022/05/20 02:36:22;;;;;;;;;;;;;;;20.10;32.70;96233.03;2069543;28;1327;-61
2022/05/20 02:37:26;;;;;;;;;;;;;;;18.92;34.78;96231.31;2069211;28;1650;-72
2022/05/20 02:38:29;;;;;;;;;;;;;;;17.85;35.37;96232.41;2073670;28;1617;-60
2022/05/20 02:39:32;;;;;;;;;;;;;;;17.20;36.42;96227.72;2074010;28;1172;-61
2022/05/20 02:40:36;;;;;;;;;;;;;;;16.61;37.28;96222.25;2073988;28;1386;-59
2022/05/20 02:41:37;;;;;;;;;;;;;;;16.19;37.64;96228.31;2074116;28;884;-59
2022/05/20 02:42:40;;;;;;;;;;;;;;;16.11;38.42;96232.72;2073619;28;1664;-60
2022/05/20 02:43:43;;;;;;;;;;;;;;;16.10;38.56;96226.56;2065945;28;1269;-60
2022/05/20 02:44:45;;;;;;;;;;;;;;;16.04;38.48;96229.81;2070800;28;1014;-59
2022/05/20 02:45:49;;;;;;;;;;;;;;;16.00;38.09;96229.31;2074209;28;1172;-59
2022/05/20 02:46:51;;;;;;;;;;;;;;;15.97;38.05;96234.09;2074223;28;1061;-58
2022/05/20 02:47:54;;;;;;;;;;;;;;;15.84;38.29;96224.69;2064893;28;1969;-61
2022/05/20 02:48:55;;;;;;;;;;;;;;;15.78;38.32;96229.78;2073777;28;1318;-59
2022/05/20 02:49:58;;;;;;;;;;;;;;;15.84;38.13;96219.38;2073728;28;946;-60
2022/05/20 02:51:01;;;;;;;;;;;;;;;15.80;38.19;96220.69;2074747;28;1756;-59
2022/05/20 02:52:03;;;;;;;;;;;;;;;15.77;38.04;96218.34;2074145;28;1586;-58
2022/05/20 02:53:06;;;;;;;;;;;;;;;15.80;37.86;96214.56;2073554;28;1555;-59
2022/05/20 02:54:08;;;;;;;;;;;;;;;15.88;38.01;96222.59;2073954;28;1002;-60
2022/05/20 02:55:13;;;;;;;;;;;;;;;15.78;38.02;96214.69;2076425;28;1701;-60
2022/05/20 02:56:15;;;;;;;;;;;;;;;15.70;37.96;96213.75;2081447;28;1118;-60
2022/05/20 02:57:17;;;;;;;;;;;;;;;15.75;38.01;96219.44;2078089;28;1627;-59
2022/05/20 03:05:07;;;;;;;;;;;;;;;16.24;36.55;96217.22;2073371;28;1641;-60
2022/05/20 03:06:09;;;;;;;;;;;;;;;15.82;37.15;96218.72;2065715;28;1006;-59
2022/05/20 03:07:13;;;;;;;;;;;;;;;15.63;37.39;96213.53;2065483;28;1906;-61
2022/05/20 03:08:15;;;;;;;;;;;;;;;15.35;38.07;96210.13;2065678;28;1114;-59
2022/05/20 03:09:19;;;;;;;;;;;;;;;15.14;39.10;96211.22;2067958;28;1607;-59
2022/05/20 03:10:22;;;;;;;;;;;;;;;15.39;38.79;96208.81;2068133;28;1672;-67
2022/05/20 03:11:25;;;;;;;;;;;;;;;15.77;38.35;96207.75;2069588;28;1372;-67
2022/05/20 03:12:26;;;;;;;;;;;;;;;15.86;37.78;96201.53;2074458;28;1430;-59
2022/05/20 03:13:29;;;;;;;;;;;;;;;15.66;37.80;96209.75;2073892;28;1160;-59
2022/05/20 03:14:32;;;;;;;;;;;;;;;15.48;37.89;96205.28;2073551;28;1576;-60
2022/05/20 03:15:36;;;;;;;;;;;;;;;15.53;37.81;96210.94;2081937;28;1113;-59
2022/05/20 03:16:39;;;;;;;;;;;;;;;15.56;37.94;96209.81;2081983;28;1061;-61
2022/05/20 03:17:42;;;;;;;;;;;;;;;15.65;37.67;96211.59;2074283;28;1381;-60
2022/05/20 03:18:44;;;;;;;;;;;;;;;15.63;37.12;96205.59;2073526;28;1632;-59
2022/05/20 03:19:47;;;;;;;;;;;;;;;15.47;37.50;96213.38;2073446;28;1077;-62
2022/05/20 03:20:49;;;;;;;;;;;;;;;15.51;37.48;96206.81;2074236;28;1584;-59
2022/05/20 03:21:52;;;;;;;;;;;;;;;15.46;37.65;96215.19;2074298;28;1551;-68
2022/05/20 03:22:54;;;;;;;;;;;;;;;15.48;37.75;96220.31;2068012;28;1614;-60
2022/05/20 03:23:59;;;;;;;;;;;;;;;15.47;37.58;96218.69;2066548;28;1179;-60
2022/05/20 03:25:01;;;;;;;;;;;;;;;15.59;37.42;96210.38;2072000;28;1437;-61
2022/05/20 03:26:05;;;;;;;;;;;;;;;15.51;37.36;96206.81;2073806;28;1027;-60
2022/05/20 03:27:08;;;;;;;;;;;;;;;15.54;37.60;96207.34;2073482;28;1005;-59
2022/05/20 03:28:10;;;;;;;;;;;;;;;15.54;37.55;96211.81;2073745;28;1981;-60
2022/05/20 03:29:13;;;;;;;;;;;;;;;15.47;37.47;96216.03;2073200;28;1552;-59
2022/05/20 03:30:15;;;;;;;;;;;;;;;15.21;37.70;96211.44;2073445;28;1776;-59
2022/05/20 03:31:18;;;;;;;;;;;;;;;14.66;38.54;96217.53;2073717;28;1108;-60
2022/05/20 03:32:20;;;;;;;;;;;;;;;14.65;38.82;96221.19;2073627;28;1089;-59
2022/05/20 03:33:23;;;;;;;;;;;;;;;14.80;38.55;96226.84;2064302;28;1703;-60
2022/05/20 03:34:24;;;;;;;;;;;;;;;14.86;38.44;96218.31;2064670;28;1157;-60
2022/05/20 03:35:27;;;;;;;;;;;;;;;15.01;38.18;96223.13;2065371;28;1165;-77
2022/05/20 03:36:30;;;;;;;;;;;;;;;14.95;38.36;96228.03;2064950;28;1009;-59
2022/05/20 03:37:33;;;;;;;;;;;;;;;14.99;38.40;96225.09;2065149;28;1084;-59
2022/05/20 03:38:36;;;;;;;;;;;;;;;14.99;38.51;96223.25;2065658;28;1014;-59
2022/05/20 03:39:39;;;;;;;;;;;;;;;15.04;38.71;96230.78;2065534;28;1009;-59
2022/05/20 03:40:41;;;;;;;;;;;;;;;15.25;38.65;96223.44;2065630;28;1105;-59
2022/05/20 03:41:45;;;;;;;;;;;;;;;15.41;38.19;96228.88;2065238;28;1159;-59
2022/05/20 03:42:47;;;;;;;;;;;;;;;15.45;38.09;96233.88;2065327;28;1459;-59
2022/05/20 03:43:50;;;;;;;;;;;;;;;15.43;38.43;96234.03;2064269;28;1053;-60
2022/05/20 03:44:53;;;;;;;;;;;;;;;15.42;38.47;96237.66;2057969;28;1160;-60
2022/05/20 03:45:55;;;;;;;;;;;;;;;15.38;38.63;96242.41;2064556;28;1274;-60
2022/05/20 03:46:58;;;;;;;;;;;;;;;15.39;38.74;96245.91;2064831;28;1034;-58
2022/05/20 03:48:00;;;;;;;;;;;;;;;15.42;38.82;96245.59;2064600;28;1910;-60
2022/05/20 03:49:03;;;;;;;;;;;;;;;15.42;38.86;96251.75;2064431;28;1291;-60
2022/05/20 03:50:06;;;;;;;;;;;;;;;15.41;39.02;96258.00;2064732;28;1014;-59
2022/05/20 03:51:08;;;;;;;;;;;;;;;15.46;38.99;96251.47;2064209;28;1256;-60
2022/05/20 03:52:12;;;;;;;;;;;;;;;15.44;39.28;96254.25;2064025;28;1103;-60
2022/05/20 03:53:14;;;;;;;;;;;;;;;15.42;39.16;96261.50;2064654;28;1075;-60
2022/05/20 03:54:17;;;;;;;;;;;;;;;15.44;39.21;96256.88;2064653;28;1342;-60
2022/05/20 03:55:19;;;;;;;;;;;;;;;15.30;39.18;96255.56;2060357;28;1082;-61
2022/05/20 03:56:22;;;;;;;;;;;;;;;15.29;39.58;96263.69;2059549;28;1197;-60
2022/05/20 03:57:25;;;;;;;;;;;;;;;15.24;39.85;96266.75;2064550;28;1106;-58
2022/05/20 03:58:28;;;;;;;;;;;;;;;15.19;39.74;96272.50;2064578;28;1041;-60
2022/05/20 03:59:33;;;;;;;;;;;;;;;15.04;40.39;96268.66;2064779;28;1001;-60
2022/05/20 04:01:56;;;;;;;;;;;;;;;15.08;40.49;96275.34;2065117;28;1137;-59
2022/05/20 04:01:57;;;;;;;;;;;;;;;15.11;40.31;96279.53;2065373;28;986;-59
2022/05/20 04:03:00;;;;;;;;;;;;;;;15.18;40.08;96278.78;2065311;28;1065;-59
2022/05/20 04:04:02;;;;;;;;;;;;;;;15.18;40.31;96277.94;2064909;28;2336;-60
2022/05/20 04:05:05;;;;;;;;;;;;;;;15.21;40.40;96276.81;2065424;28;1118;-59
2022/05/20 04:06:07;;;;;;;;;;;;;;;15.25;40.13;96276.38;2065262;28;1041;-59
2022/05/20 04:07:12;;;;;;;;;;;;;;;15.24;40.28;96280.00;2060850;28;1562;-66
2022/05/20 04:08:14;;;;;;;;;;;;;;;15.20;40.46;96278.63;2061988;28;1898;-60
2022/05/20 04:09:17;;;;;;;;;;;;;;;15.09;40.51;96274.34;2065288;28;1117;-59
2022/05/20 04:10:20;;;;;;;;;;;;;;;15.05;40.67;96269.50;2065348;28;1018;-59
2022/05/20 04:11:21;;;;;;;;;;;;;;;15.03;40.82;96276.75;2064956;28;1117;-60
2022/05/20 04:12:27;;;;;;;;;;;;;;;14.99;40.57;96272.72;2065469;28;1051;-74
2022/05/20 04:13:29;;;;;;;;;;;;;;;14.77;41.01;96266.84;2065365;28;1040;-59
2022/05/20 04:14:32;;;;;;;;;;;;;;;14.81;41.27;96273.50;2065348;28;958;-60
2022/05/20 04:15:35;;;;;;;;;;;;;;;14.93;40.79;96269.69;2065232;28;1106;-60
2022/05/20 04:16:38;;;;;;;;;;;;;;;15.05;40.73;96267.69;2065447;28;1049;-61
2022/05/20 04:17:41;;;;;;;;;;;;;;;15.17;40.40;96269.16;2065269;28;1045;-76
2022/05/20 04:18:43;;;;;;;;;;;;;;;15.14;40.57;96268.63;2055649;28;1209;-59
2022/05/20 04:19:46;;;;;;;;;;;;;;;15.08;40.53;96266.56;2065085;28;1173;-60
2022/05/20 04:20:49;;;;;;;;;;;;;;;14.82;40.61;96272.50;2065160;28;1014;-60
2022/05/20 04:21:52;;;;;;;;;;;;;;;14.61;40.92;96271.84;2065153;28;1165;-60
2022/05/20 04:22:55;;;;;;;;;;;;;;;14.51;41.50;96262.16;2065215;28;1041;-60
2022/05/20 04:23:57;;;;;;;;;;;;;;;14.65;41.02;96270.56;2065171;28;959;-59
2022/05/20 04:25:00;;;;;;;;;;;;;;;14.70;41.16;96269.19;2065315;28;994;-60
2022/05/20 04:26:02;;;;;;;;;;;;;;;14.62;41.19;96273.50;2064898;28;1156;-60
2022/05/20 04:27:05;;;;;;;;;;;;;;;14.70;41.07;96261.25;2065246;28;1132;-59
2022/05/20 04:28:08;;;;;;;;;;;;;;;14.71;41.08;96272.72;2065187;28;1101;-60
2022/05/20 04:29:11;;;;;;;;;;;;;;;14.59;41.10;96269.34;2065222;28;1906;-60
2022/05/20 04:30:14;;;;;;;;;;;;;;;14.66;41.33;96266.97;2057044;28;1293;-59
2022/05/20 04:31:16;;;;;;;;;;;;;;;14.78;41.34;96273.78;2064955;28;1445;-59
2022/05/20 04:32:19;;;;;;;;;;;;;;;14.77;41.17;96261.53;2065220;28;1148;-59
2022/05/20 04:33:21;;;;;;;;;;;;;;;14.74;40.98;96264.47;2064699;28;1168;-59
2022/05/20 04:34:24;;;;;;;;;;;;;;;14.61;40.97;96271.84;2065313;28;1344;-60
2022/05/20 04:35:25;;;;;;;;;;;;;;;14.50;41.24;96273.69;2065099;28;1165;-60
2022/05/20 04:36:28;;;;;;;;;;;;;;;14.44;41.32;96268.97;2064956;28;1114;-60
2022/05/20 04:37:30;;;;;;;;;;;;;;;14.50;41.06;96271.03;2065185;28;1106;-59
2022/05/20 04:38:33;;;;;;;;;;;;;;;14.54;41.09;96266.31;2065211;28;1120;-60
2022/05/20 04:39:36;;;;;;;;;;;;;;;14.62;40.98;96265.56;2065353;28;1045;-59
2022/05/20 04:40:38;;;;;;;;;;;;;;;14.72;40.95;96269.91;2063174;28;1855;-60
2022/05/20 04:47:05;;;;;;;;;;;;;;;14.25;41.13;96271.63;2065162;28;1153;-59
2022/05/20 04:48:09;;;;;;;;;;;;;;;14.24;41.14;96275.25;2064779;28;2076;-59
2022/05/20 04:49:11;;;;;;;;;;;;;;;14.36;41.13;96278.59;2064944;28;1997;-59
2022/05/20 04:50:14;;;;;;;;;;;;;;;14.29;41.22;96279.16;2066162;28;1532;-60
2022/05/20 04:51:16;;;;;;;;;;;;;;;14.33;41.06;96273.59;2073052;28;1102;-59
2022/05/20 04:52:19;;;;;;;;;;;;;;;14.34;41.50;96276.09;2068529;28;1066;-60
2022/05/20 04:54:50;;;;;;;;;;;;;;;14.42;41.15;96288.59;2073130;28;1118;-77
2022/05/20 04:55:52;;;;;;;;;;;;;;;14.42;41.11;96285.94;2073047;28;1117;-59
2022/05/20 04:56:54;;;;;;;;;;;;;;;14.44;41.06;96287.47;2073411;28;1106;-60
2022/05/20 04:57:57;;;;;;;;;;;;;;;14.53;41.21;96277.84;2073253;28;1977;-60
2022/05/20 04:59:00;;;;;;;;;;;;;;;14.63;41.09;96283.13;2073357;28;1060;-59
2022/05/20 05:00:07;;;;;;;;;;;;;;;14.71;41.05;96286.75;2073352;28;1026;-59
2022/05/20 05:01:09;;;;;;;;;;;;;;;14.72;40.82;96291.06;2073222;28;1268;-59
2022/05/20 05:02:13;;;;;;;;;;;;;;;14.73;40.94;96287.44;2073280;28;1015;-59
2022/05/20 05:03:16;;;;;;;;;;;;;;;14.77;40.65;96288.00;2072832;28;997;-60
2022/05/20 05:04:18;;;;;;;;;;;;;;;14.76;40.75;96281.03;2064669;28;1598;-60
2022/05/20 05:05:23;;;;;;;;;;;;;;;14.73;40.86;96278.66;2073037;28;1201;-60
2022/05/20 05:06:24;;;;;;;;;;;;;;;14.81;40.85;96284.06;2073049;28;1106;-59
2022/05/20 05:07:27;;;;;;;;;;;;;;;14.98;40.72;96284.31;2073393;28;1121;-60
2022/05/20 05:08:29;;;;;;;;;;;;;;;14.97;40.74;96283.47;2073109;28;1369;-59
2022/05/20 05:09:33;;;;;;;;;;;;;;;15.07;40.59;96288.72;2073231;28;1906;-60
2022/05/20 05:10:35;;;;;;;;;;;;;;;15.07;40.46;96291.38;2072802;28;1064;-60
2022/05/20 05:11:39;;;;;;;;;;;;;;;15.07;40.36;96288.72;2073199;28;1125;-60
2022/05/20 05:12:42;;;;;;;;;;;;;;;14.96;40.55;96290.56;2073159;28;1068;-59
2022/05/20 05:13:44;;;;;;;;;;;;;;;15.04;40.44;96294.31;2073106;28;1699;-60
2022/05/20 05:14:48;;;;;;;;;;;;;;;15.13;40.25;96298.72;2069384;28;1068;-60
2022/05/20 05:15:52;;;;;;;;;;;;;;;15.17;40.19;96289.53;2068408;28;1089;-59
2022/05/20 05:16:54;;;;;;;;;;;;;;;15.18;40.37;96292.00;2073223;28;1167;-60
2022/05/20 05:18:12;;;;;;;;;;;;;;;15.18;40.60;96291.19;2072888;28;1018;-59
2022/05/20 05:19:14;;;;;;;;;;;;;;;15.35;40.77;96297.50;2073141;28;1148;-60
2022/05/20 05:20:20;;;;;;;;;;;;;;;15.50;40.52;96297.84;2072863;28;1116;-60
2022/05/20 05:21:23;;;;;;;;;;;;;;;15.54;40.24;96288.63;2073377;28;1044;-60
2022/05/20 05:22:24;;;;;;;;;;;;;;;15.57;40.02;96296.28;2073020;28;1117;-60
2022/05/20 05:23:27;;;;;;;;;;;;;;;15.51;40.40;96296.88;2073118;28;1098;-59
2022/05/20 05:24:29;;;;;;;;;;;;;;;15.56;40.28;96295.44;2072936;28;1093;-60
2022/05/20 05:25:33;;;;;;;;;;;;;;;15.51;40.29;96296.88;2072930;28;1026;-59
2022/05/20 05:26:35;;;;;;;;;;;;;;;15.52;39.95;96293.22;2068158;28;1274;-60
2022/05/20 05:27:39;;;;;;;;;;;;;;;15.37;40.19;96291.09;2068414;28;1430;-60
2022/05/20 05:28:40;;;;;;;;;;;;;;;15.35;40.28;96294.84;2073132;28;1087;-59
2022/05/20 05:29:43;;;;;;;;;;;;;;;15.39;40.29;96291.78;2073288;28;1997;-59
2022/05/20 05:30:46;;;;;;;;;;;;;;;15.40;40.31;96298.72;2073081;28;1140;-60
2022/05/20 05:31:50;;;;;;;;;;;;;;;15.47;40.41;96293.66;2073069;28;1110;-60
2022/05/20 05:32:52;;;;;;;;;;;;;;;15.54;39.85;96296.59;2072908;28;1056;-60
2022/05/20 05:33:55;;;;;;;;;;;;;;;15.51;39.44;96291.59;2073671;28;994;-59
2022/05/20 05:34:57;;;;;;;;;;;;;;;15.46;39.71;96293.84;2074717;28;1089;-59
2022/05/20 05:36:00;;;;;;;;;;;;;;;15.46;39.87;96294.66;2074507;28;1057;-60
2022/05/20 05:37:02;;;;;;;;;;;;;;;15.40;39.73;96296.09;2074641;28;1109;-60
2022/05/20 05:38:05;;;;;;;;;;;;;;;15.51;39.54;96296.88;2068437;28;1101;-60
2022/05/20 05:39:06;;;;;;;;;;;;;;;15.63;39.13;96290.38;2072735;28;2117;-60
2022/05/20 05:40:11;;;;;;;;;;;;;;;15.86;39.02;96290.81;2074412;28;1256;-59
2022/05/20 05:41:13;;;;;;;;;;;;;;;15.91;38.66;96288.53;2074723;28;1114;-60
2022/05/20 05:42:16;;;;;;;;;;;;;;;15.97;38.16;96287.13;2074679;28;1036;-60
2022/05/20 05:43:19;;;;;;;;;;;;;;;16.04;38.10;96283.69;2074564;28;1117;-60
2022/05/20 05:44:21;;;;;;;;;;;;;;;16.08;37.88;96278.94;2074435;28;1049;-60
2022/05/20 05:45:26;;;;;;;;;;;;;;;16.13;37.96;96284.59;2074702;28;1013;-59
2022/05/20 05:46:28;;;;;;;;;;;;;;;16.21;38.11;96284.66;2074590;28;1014;-60
2022/05/20 05:47:32;;;;;;;;;;;;;;;16.34;38.07;96283.44;2074136;28;1125;-59
2022/05/20 05:48:35;;;;;;;;;;;;;;;16.44;37.79;96282.34;2074480;28;1233;-59
2022/05/20 05:49:37;;;;;;;;;;;;;;;16.46;37.39;96274.25;2065343;28;1121;-60